createdAt,value
2023-01-02T00:00:20.743Z,9.78
2023-01-02T00:01:14.596Z,9.78
2023-01-02T00:02:14.574Z,9.78
2023-01-02T00:03:14.749Z,9.80
2023-01-02T00:04:14.548Z,9.78
2023-01-02T00:05:14.558Z,9.80
2023-01-02T00:06:14.524Z,9.80
2023-01-02T00:07:14.520Z,9.80
2023-01-02T00:08:14.491Z,9.81
2023-01-02T00:09:14.500Z,9.85
2023-01-02T00:10:14.466Z,9.91
2023-01-02T00:11:14.497Z,9.93
2023-01-02T00:12:14.468Z,9.92
2023-01-02T00:13:14.461Z,9.93
2023-01-02T00:14:14.420Z,9.96
2023-01-02T00:15:14.419Z,9.96
2023-01-02T00:16:14.442Z,9.98
2023-01-02T00:17:14.413Z,9.96
2023-01-02T00:18:14.379Z,9.96
2023-01-02T00:19:14.382Z,9.95
2023-01-02T00:20:14.366Z,9.93
2023-01-02T00:21:14.358Z,9.93
2023-01-02T00:22:14.356Z,9.93
2023-01-02T00:23:14.335Z,9.92
2023-01-02T00:24:14.335Z,9.93
2023-01-02T00:25:14.345Z,9.93
2023-01-02T00:26:14.301Z,9.96
2023-01-02T00:27:14.316Z,9.98
2023-01-02T00:28:14.286Z,10.01
2023-01-02T00:29:14.276Z,10.01
2023-01-02T00:30:14.253Z,9.99
2023-01-02T00:31:14.301Z,10.02
2023-01-02T00:32:14.224Z,10.02
2023-01-02T00:33:14.250Z,10.02
2023-01-02T00:34:14.199Z,10.01
2023-01-02T00:35:14.226Z,10.04
2023-01-02T00:36:14.184Z,10.04
2023-01-02T00:37:14.187Z,10.06
2023-01-02T00:38:14.181Z,10.07
2023-01-02T00:39:14.271Z,10.06
2023-01-02T00:40:14.258Z,10.06
2023-01-02T00:41:14.140Z,10.07
2023-01-02T00:42:14.137Z,10.10
2023-01-02T00:43:14.138Z,10.11
2023-01-02T00:44:14.103Z,10.14
2023-01-02T00:45:14.088Z,10.11
2023-01-02T00:46:14.135Z,10.14
2023-01-02T00:47:14.074Z,10.13
2023-01-02T00:48:14.071Z,10.11
2023-01-02T00:49:14.058Z,10.13
2023-01-02T00:50:14.048Z,10.14
2023-01-02T00:51:14.027Z,10.16
2023-01-02T00:52:14.004Z,10.16
2023-01-02T00:53:14.040Z,10.17
2023-01-02T00:54:13.998Z,10.17
2023-01-02T00:55:13.988Z,10.17
2023-01-02T00:56:13.975Z,10.17
2023-01-02T00:57:13.960Z,10.18
2023-01-02T00:58:13.958Z,10.18
2023-01-02T00:59:13.937Z,10.18
2023-01-02T01:00:17.058Z,10.17
2023-01-02T01:01:14.108Z,10.17
2023-01-02T01:02:14.005Z,10.20
2023-01-02T01:03:13.904Z,10.24
2023-01-02T01:04:13.876Z,10.25
2023-01-02T01:05:13.900Z,10.24
2023-01-02T01:06:13.870Z,10.24
2023-01-02T01:07:13.917Z,10.25
2023-01-02T01:08:13.863Z,10.24
2023-01-02T01:09:13.958Z,10.24
2023-01-02T01:10:13.810Z,10.24
2023-01-02T01:11:13.814Z,10.24
2023-01-02T01:12:13.799Z,10.24
2023-01-02T01:13:13.827Z,10.24
2023-01-02T01:14:13.780Z,10.22
2023-01-02T01:15:13.796Z,10.24
2023-01-02T01:16:13.795Z,10.25
2023-01-02T01:17:13.748Z,10.25
2023-01-02T01:18:13.733Z,10.28
2023-01-02T01:19:13.735Z,10.29
2023-01-02T01:20:13.703Z,10.32
2023-01-02T01:21:13.706Z,10.32
2023-01-02T01:22:13.684Z,10.35
2023-01-02T01:23:13.706Z,10.35
2023-01-02T01:24:13.662Z,10.38
2023-01-02T01:25:13.649Z,10.36
2023-01-02T01:26:13.633Z,10.38
2023-01-02T01:27:13.639Z,10.35
2023-01-02T01:28:13.643Z,10.35
2023-01-02T01:29:13.630Z,10.35
2023-01-02T01:30:13.607Z,10.36
2023-01-02T01:31:13.669Z,10.38
2023-01-02T01:32:13.578Z,10.35
2023-01-02T01:33:13.586Z,10.38
2023-01-02T01:34:13.574Z,10.42
2023-01-02T01:35:13.546Z,10.42
2023-01-02T01:36:13.537Z,10.42
2023-01-02T01:37:13.525Z,10.38
2023-01-02T01:38:13.527Z,10.39
2023-01-02T01:39:13.503Z,10.39
2023-01-02T01:40:13.517Z,10.38
2023-01-02T01:41:13.500Z,10.39
2023-01-02T01:42:13.464Z,10.43
2023-01-02T01:43:13.489Z,10.49
2023-01-02T01:44:13.451Z,10.49
2023-01-02T01:45:13.465Z,10.51
2023-01-02T01:46:13.486Z,10.51
2023-01-02T01:47:13.434Z,10.49
2023-01-02T01:48:13.420Z,10.46
2023-01-02T01:49:13.401Z,10.46
2023-01-02T01:50:13.411Z,10.44
2023-01-02T01:51:13.379Z,10.46
2023-01-02T01:52:13.377Z,10.49
2023-01-02T01:53:13.371Z,10.47
2023-01-02T01:54:13.343Z,10.46
2023-01-02T01:55:13.337Z,10.47
2023-01-02T01:56:13.379Z,10.47
2023-01-02T01:57:13.335Z,10.51
2023-01-02T01:58:13.334Z,10.49
2023-01-02T01:59:13.304Z,10.51
2023-01-02T02:00:13.283Z,10.51
2023-01-02T02:01:13.422Z,10.49
2023-01-02T02:02:13.459Z,10.47
2023-01-02T02:03:13.328Z,10.47
2023-01-02T02:04:13.247Z,10.47
2023-01-02T02:05:13.227Z,10.46
2023-01-02T02:06:13.221Z,10.44
2023-01-02T02:07:13.210Z,10.43
2023-01-02T02:08:13.229Z,10.44
2023-01-02T02:09:13.197Z,10.46
2023-01-02T02:10:13.170Z,10.47
2023-01-02T02:11:13.178Z,10.44
2023-01-02T02:12:13.148Z,10.44
2023-01-02T02:13:13.184Z,10.42
2023-01-02T02:14:13.138Z,10.44
2023-01-02T02:15:13.127Z,10.42
2023-01-02T02:16:13.307Z,10.39
2023-01-02T02:17:13.113Z,10.38
2023-01-02T02:18:13.098Z,10.36
2023-01-02T02:19:13.083Z,10.36
2023-01-02T02:20:13.072Z,10.35
2023-01-02T02:21:13.057Z,10.35
2023-01-02T02:22:13.078Z,10.38
2023-01-02T02:23:13.058Z,10.39
2023-01-02T02:24:13.027Z,10.44
2023-01-02T02:25:13.015Z,10.43
2023-01-02T02:26:13.004Z,10.46
2023-01-02T02:27:13.000Z,10.49
2023-01-02T02:28:12.994Z,10.51
2023-01-02T02:29:12.978Z,10.51
2023-01-02T02:30:12.954Z,10.52
2023-01-02T02:31:12.960Z,10.54
2023-01-02T02:32:12.936Z,10.51
2023-01-02T02:33:12.958Z,10.47
2023-01-02T02:34:12.932Z,10.47
2023-01-02T02:35:12.975Z,10.43
2023-01-02T02:36:12.911Z,10.44
2023-01-02T02:37:12.902Z,10.44
2023-01-02T02:38:12.899Z,10.46
2023-01-02T02:39:12.870Z,10.46
2023-01-02T02:40:12.865Z,10.47
2023-01-02T02:41:12.852Z,10.46
2023-01-02T02:42:12.840Z,10.44
2023-01-02T02:43:12.848Z,10.49
2023-01-02T02:44:12.817Z,10.49
2023-01-02T02:45:12.812Z,10.47
2023-01-02T02:46:12.854Z,10.47
2023-01-02T02:47:12.791Z,10.44
2023-01-02T02:48:12.790Z,10.43
2023-01-02T02:49:12.761Z,10.39
2023-01-02T02:50:12.755Z,10.42
2023-01-02T02:51:12.748Z,10.38
2023-01-02T02:52:12.743Z,10.36
2023-01-02T02:53:12.732Z,10.35
2023-01-02T02:54:12.729Z,10.36
2023-01-02T02:55:12.702Z,10.38
2023-01-02T02:56:12.694Z,10.36
2023-01-02T02:57:12.686Z,10.38
2023-01-02T02:58:12.679Z,10.35
2023-01-02T02:59:12.685Z,10.35
2023-01-02T03:00:12.664Z,10.31
2023-01-02T03:01:12.756Z,10.29
2023-01-02T03:02:12.928Z,10.29
2023-01-02T03:03:12.766Z,10.28
2023-01-02T03:04:12.627Z,10.28
2023-01-02T03:05:12.607Z,10.28
2023-01-02T03:06:12.586Z,10.28
2023-01-02T03:07:12.599Z,10.26
2023-01-02T03:08:12.581Z,10.25
2023-01-02T03:09:12.580Z,10.25
2023-01-02T03:10:12.553Z,10.25
2023-01-02T03:11:12.552Z,10.25
2023-01-02T03:12:12.536Z,10.25
2023-01-02T03:13:12.535Z,10.24
2023-01-02T03:14:12.524Z,10.22
2023-01-02T03:15:12.509Z,10.20
2023-01-02T03:16:12.564Z,10.22
2023-01-02T03:17:12.481Z,10.18
2023-01-02T03:18:12.466Z,10.18
2023-01-02T03:19:12.487Z,10.17
2023-01-02T03:20:12.457Z,10.18
2023-01-02T03:21:12.451Z,10.17
2023-01-02T03:22:12.428Z,10.17
2023-01-02T03:23:12.418Z,10.18
2023-01-02T03:24:12.443Z,10.17
2023-01-02T03:25:12.398Z,10.20
2023-01-02T03:26:12.383Z,10.20
2023-01-02T03:27:12.391Z,10.18
2023-01-02T03:28:12.368Z,10.18
2023-01-02T03:29:12.375Z,10.17
2023-01-02T03:30:12.353Z,10.17
2023-01-02T03:31:12.400Z,10.16
2023-01-02T03:32:12.330Z,10.17
2023-01-02T03:33:12.326Z,10.17
2023-01-02T03:34:12.336Z,10.16
2023-01-02T03:35:12.289Z,10.14
2023-01-02T03:36:12.302Z,10.13
2023-01-02T03:37:12.270Z,10.13
2023-01-02T03:38:12.262Z,10.13
2023-01-02T03:39:12.277Z,10.13
2023-01-02T03:40:12.261Z,10.11
2023-01-02T03:41:12.244Z,10.10
2023-01-02T03:42:12.225Z,10.10
2023-01-02T03:43:12.212Z,10.09
2023-01-02T03:44:12.219Z,10.09
2023-01-02T03:45:12.191Z,10.09
2023-01-02T03:46:12.260Z,10.10
2023-01-02T03:47:12.167Z,10.09
2023-01-02T03:48:12.161Z,10.10
2023-01-02T03:49:12.170Z,10.13
2023-01-02T03:50:12.146Z,10.11
2023-01-02T03:51:12.147Z,10.10
2023-01-02T03:52:12.114Z,10.11
2023-01-02T03:53:12.145Z,10.13
2023-01-02T03:54:12.131Z,10.11
2023-01-02T03:55:12.088Z,10.13
2023-01-02T03:56:12.075Z,10.13
2023-01-02T03:57:12.069Z,10.13
2023-01-02T03:58:12.061Z,10.13
2023-01-02T03:59:12.065Z,10.16
2023-01-02T04:00:12.033Z,10.17
2023-01-02T04:01:12.193Z,10.20
2023-01-02T04:02:12.283Z,10.20
2023-01-02T04:03:12.072Z,10.20
2023-01-02T04:04:12.013Z,10.22
2023-01-02T04:05:11.999Z,10.24
2023-01-02T04:06:11.965Z,10.25
2023-01-02T04:07:11.954Z,10.25
2023-01-02T04:08:11.958Z,10.25
2023-01-02T04:09:11.960Z,10.26
2023-01-02T04:10:11.926Z,10.26
2023-01-02T04:11:11.923Z,10.24
2023-01-02T04:12:11.898Z,10.26
2023-01-02T04:13:11.893Z,10.25
2023-01-02T04:14:11.907Z,10.24
2023-01-02T04:15:11.888Z,10.25
2023-01-02T04:16:11.897Z,10.24
2023-01-02T04:17:11.855Z,10.25
2023-01-02T04:18:11.839Z,10.25
2023-01-02T04:19:11.870Z,10.25
2023-01-02T04:20:11.831Z,10.22
2023-01-02T04:21:11.840Z,10.25
2023-01-02T04:22:11.795Z,10.24
2023-01-02T04:23:11.817Z,10.22
2023-01-02T04:24:11.791Z,10.22
2023-01-02T04:25:11.765Z,10.22
2023-01-02T04:26:11.754Z,10.22
2023-01-02T04:27:11.763Z,10.20
2023-01-02T04:28:11.732Z,10.22
2023-01-02T04:29:11.737Z,10.17
2023-01-02T04:30:11.714Z,10.17
2023-01-02T04:31:11.767Z,10.16
2023-01-02T04:32:11.682Z,10.14
2023-01-02T04:33:11.675Z,10.16
2023-01-02T04:34:11.679Z,10.17
2023-01-02T04:35:11.677Z,10.16
2023-01-02T04:36:11.633Z,10.16
2023-01-02T04:37:11.640Z,10.16
2023-01-02T04:38:11.628Z,10.14
2023-01-02T04:39:11.644Z,10.13
2023-01-02T04:40:11.603Z,10.18
2023-01-02T04:41:11.595Z,10.18
2023-01-02T04:42:11.575Z,10.24
2023-01-02T04:43:11.588Z,10.26
2023-01-02T04:44:11.604Z,10.28
2023-01-02T04:45:11.559Z,10.32
2023-01-02T04:46:11.568Z,10.35
2023-01-02T04:47:14.397Z,10.36
2023-01-02T04:48:11.525Z,10.38
2023-01-02T04:49:11.519Z,10.42
2023-01-02T04:50:11.495Z,10.43
2023-01-02T04:51:11.496Z,10.43
2023-01-02T04:52:11.483Z,10.43
2023-01-02T04:53:11.475Z,10.42
2023-01-02T04:54:11.476Z,10.42
2023-01-02T04:55:11.467Z,10.43
2023-01-02T04:56:11.435Z,10.42
2023-01-02T04:57:11.431Z,10.42
2023-01-02T04:58:11.412Z,10.42
2023-01-02T04:59:11.423Z,10.43
2023-01-02T05:00:11.396Z,10.46
2023-01-02T05:01:11.613Z,10.46
2023-01-02T05:02:11.548Z,10.49
2023-01-02T05:03:11.449Z,10.52
2023-01-02T05:04:11.367Z,10.52
2023-01-02T05:05:11.337Z,10.54
2023-01-02T05:06:11.337Z,10.54
2023-01-02T05:07:11.318Z,10.55
2023-01-02T05:08:16.136Z,10.58
2023-01-02T05:09:11.315Z,10.63
2023-01-02T05:10:11.324Z,10.63
2023-01-02T05:11:11.283Z,10.63
2023-01-02T05:12:11.308Z,10.60
2023-01-02T05:13:11.265Z,10.65
2023-01-02T05:14:11.268Z,10.68
2023-01-02T05:15:11.254Z,10.72
2023-01-02T05:16:11.253Z,10.72
2023-01-02T05:17:11.264Z,10.73
2023-01-02T05:18:11.207Z,10.76
2023-01-02T05:19:11.226Z,10.75
2023-01-02T05:20:11.177Z,10.76
2023-01-02T05:21:11.172Z,10.75
2023-01-02T05:22:11.181Z,10.75
2023-01-02T05:23:11.157Z,10.76
2023-01-02T05:24:11.158Z,10.76
2023-01-02T05:25:11.131Z,10.78
2023-01-02T05:26:11.158Z,10.78
2023-01-02T05:27:11.121Z,10.73
2023-01-02T05:28:11.095Z,10.75
2023-01-02T05:29:11.113Z,10.73
2023-01-02T05:30:11.123Z,10.72
2023-01-02T05:31:11.109Z,10.75
2023-01-02T05:32:11.060Z,10.73
2023-01-02T05:33:11.057Z,10.75
2023-01-02T05:34:11.211Z,10.75
2023-01-02T05:35:11.044Z,10.73
2023-01-02T05:36:11.034Z,10.72
2023-01-02T05:37:11.008Z,10.69
2023-01-02T05:38:11.010Z,10.68
2023-01-02T05:39:11.004Z,10.65
2023-01-02T05:40:10.997Z,10.63
2023-01-02T05:41:10.979Z,10.60
2023-01-02T05:42:10.962Z,10.57
2023-01-02T05:43:10.955Z,10.57
2023-01-02T05:44:10.960Z,10.55
2023-01-02T05:45:10.922Z,10.57
2023-01-02T05:46:11.022Z,10.57
2023-01-02T05:47:16.221Z,10.58
2023-01-02T05:48:10.898Z,10.62
2023-01-02T05:49:10.910Z,10.65
2023-01-02T05:50:10.864Z,10.66
2023-01-02T05:51:10.876Z,10.69
2023-01-02T05:52:10.842Z,10.72
2023-01-02T05:53:10.842Z,10.72
2023-01-02T05:54:10.847Z,10.72
2023-01-02T05:55:10.820Z,10.73
2023-01-02T05:56:10.807Z,10.73
2023-01-02T05:57:10.808Z,10.76
2023-01-02T05:58:10.788Z,10.76
2023-01-02T05:59:10.807Z,10.73
2023-01-02T06:00:10.802Z,10.70
2023-01-02T06:01:10.781Z,10.72
2023-01-02T06:02:10.945Z,10.73
2023-01-02T06:03:10.855Z,10.75
2023-01-02T06:04:14.690Z,10.76
2023-01-02T06:05:10.738Z,10.78
2023-01-02T06:06:10.713Z,10.76
2023-01-02T06:07:10.746Z,10.75
2023-01-02T06:08:10.686Z,10.75
2023-01-02T06:09:10.698Z,10.73
2023-01-02T06:10:10.659Z,10.78
2023-01-02T06:11:10.674Z,10.80
2023-01-02T06:12:10.658Z,10.83
2023-01-02T06:13:10.637Z,10.88
2023-01-02T06:14:10.674Z,10.86
2023-01-02T06:15:10.652Z,10.87
2023-01-02T06:16:10.713Z,10.90
2023-01-02T06:17:10.599Z,10.91
2023-01-02T06:18:10.579Z,10.90
2023-01-02T06:19:10.574Z,10.94
2023-01-02T06:20:10.569Z,10.95
2023-01-02T06:21:10.568Z,10.95
2023-01-02T06:22:10.555Z,10.95
2023-01-02T06:23:10.534Z,10.98
2023-01-02T06:24:10.524Z,10.98
2023-01-02T06:25:10.542Z,10.98
2023-01-02T06:26:10.499Z,10.98
2023-01-02T06:27:10.494Z,10.94
2023-01-02T06:28:10.482Z,10.94
2023-01-02T06:29:10.473Z,10.94
2023-01-02T06:30:10.483Z,10.95
2023-01-02T06:31:10.515Z,10.94
2023-01-02T06:32:10.501Z,10.93
2023-01-02T06:33:10.430Z,10.93
2023-01-02T06:34:10.444Z,10.93
2023-01-02T06:35:10.421Z,10.93
2023-01-02T06:36:10.391Z,10.93
2023-01-02T06:37:10.638Z,10.94
2023-01-02T06:38:10.399Z,10.94
2023-01-02T06:39:10.373Z,10.95
2023-01-02T06:40:10.407Z,11.01
2023-01-02T06:41:10.355Z,11.03
2023-01-02T06:42:10.331Z,11.03
2023-01-02T06:43:10.330Z,11.05
2023-01-02T06:44:10.317Z,11.05
2023-01-02T06:45:10.322Z,11.03
2023-01-02T06:46:10.356Z,11.03
2023-01-02T06:47:10.289Z,11.03
2023-01-02T06:48:10.269Z,11.05
2023-01-02T06:49:10.284Z,11.03
2023-01-02T06:50:10.285Z,11.01
2023-01-02T06:51:10.256Z,10.98
2023-01-02T06:52:10.222Z,10.99
2023-01-02T06:53:10.220Z,10.98
2023-01-02T06:54:10.209Z,10.95
2023-01-02T06:55:10.639Z,10.95
2023-01-02T06:56:10.183Z,10.98
2023-01-02T06:57:10.178Z,10.98
2023-01-02T06:58:14.598Z,10.95
2023-01-02T06:59:10.170Z,10.95
2023-01-02T07:00:10.158Z,10.94
2023-01-02T07:01:10.220Z,10.95
2023-01-02T07:02:10.222Z,10.94
2023-01-02T07:03:10.206Z,10.93
2023-01-02T07:04:10.120Z,10.90
2023-01-02T07:05:10.150Z,10.87
2023-01-02T07:06:10.094Z,10.86
2023-01-02T07:07:10.109Z,10.81
2023-01-02T07:08:10.067Z,10.80
2023-01-02T07:09:09.998Z,10.78
2023-01-02T07:10:10.009Z,10.80
2023-01-02T07:11:09.992Z,10.81
2023-01-02T07:12:09.973Z,10.83
2023-01-02T07:13:09.969Z,10.81
2023-01-02T07:14:09.967Z,10.80
2023-01-02T07:15:09.978Z,10.76
2023-01-02T07:16:09.957Z,10.76
2023-01-02T07:17:09.924Z,10.75
2023-01-02T07:18:09.924Z,10.75
2023-01-02T07:19:09.897Z,10.75
2023-01-02T07:20:09.899Z,10.75
2023-01-02T07:21:09.906Z,10.76
2023-01-02T07:22:09.881Z,10.75
2023-01-02T07:23:09.860Z,10.75
2023-01-02T07:24:09.838Z,10.78
2023-01-02T07:25:09.852Z,10.78
2023-01-02T07:26:09.839Z,10.75
2023-01-02T07:27:09.816Z,10.76
2023-01-02T07:28:09.847Z,10.75
2023-01-02T07:29:09.832Z,10.73
2023-01-02T07:30:09.811Z,10.72
2023-01-02T07:31:09.779Z,10.70
2023-01-02T07:32:09.810Z,10.69
2023-01-02T07:33:09.760Z,10.68
2023-01-02T07:34:09.752Z,10.66
2023-01-02T07:35:09.762Z,10.63
2023-01-02T07:36:09.726Z,10.63
2023-01-02T07:37:09.703Z,10.63
2023-01-02T07:38:09.788Z,10.62
2023-01-02T07:39:09.678Z,10.63
2023-01-02T07:40:09.695Z,10.63
2023-01-02T07:41:09.675Z,10.62
2023-01-02T07:42:09.660Z,10.65
2023-01-02T07:43:09.647Z,10.65
2023-01-02T07:44:09.652Z,10.65
2023-01-02T07:45:09.652Z,10.66
2023-01-02T07:46:09.731Z,10.66
2023-01-02T07:47:09.614Z,10.66
2023-01-02T07:48:09.605Z,10.66
2023-01-02T07:49:09.582Z,10.66
2023-01-02T07:50:09.630Z,10.68
2023-01-02T07:51:09.565Z,10.66
2023-01-02T07:52:09.569Z,10.68
2023-01-02T07:53:09.554Z,10.69
2023-01-02T07:54:09.545Z,10.69
2023-01-02T07:55:09.531Z,10.70
2023-01-02T07:56:09.519Z,10.69
2023-01-02T07:57:09.606Z,10.70
2023-01-02T07:58:09.532Z,10.72
2023-01-02T07:59:09.518Z,10.69
2023-01-02T08:00:09.475Z,10.70
2023-01-02T08:01:09.516Z,10.69
2023-01-02T08:02:09.634Z,10.68
2023-01-02T08:03:09.424Z,10.66
2023-01-02T08:04:09.437Z,10.68
2023-01-02T08:05:09.479Z,10.69
2023-01-02T08:06:09.409Z,10.69
2023-01-02T08:07:09.381Z,10.68
2023-01-02T08:08:09.379Z,10.66
2023-01-02T08:09:09.359Z,10.65
2023-01-02T08:10:09.366Z,10.65
2023-01-02T08:11:09.362Z,10.66
2023-01-02T08:12:09.332Z,10.66
2023-01-02T08:13:09.317Z,10.68
2023-01-02T08:14:09.322Z,10.68
2023-01-02T08:15:09.308Z,10.66
2023-01-02T08:16:09.289Z,10.68
2023-01-02T08:17:09.317Z,10.68
2023-01-02T08:18:09.271Z,10.68
2023-01-02T08:19:09.253Z,10.70
2023-01-02T08:20:09.280Z,10.73
2023-01-02T08:21:09.238Z,10.75
2023-01-02T08:22:09.232Z,10.80
2023-01-02T08:23:09.241Z,10.80
2023-01-02T08:24:09.745Z,10.81
2023-01-02T08:25:09.217Z,10.80
2023-01-02T08:26:09.194Z,10.78
2023-01-02T08:27:09.181Z,10.76
2023-01-02T08:28:09.184Z,10.76
2023-01-02T08:29:09.159Z,10.73
2023-01-02T08:30:09.178Z,10.72
2023-01-02T08:31:09.203Z,10.73
2023-01-02T08:32:09.132Z,10.73
2023-01-02T08:33:09.112Z,10.75
2023-01-02T08:34:09.109Z,10.75
2023-01-02T08:35:09.117Z,10.75
2023-01-02T08:36:09.089Z,10.75
2023-01-02T08:37:09.065Z,10.73
2023-01-02T08:38:09.062Z,10.72
2023-01-02T08:39:09.056Z,10.73
2023-01-02T08:40:09.042Z,10.75
2023-01-02T08:41:09.067Z,10.76
2023-01-02T08:42:09.024Z,10.76
2023-01-02T08:43:09.011Z,10.76
2023-01-02T08:44:09.007Z,10.73
2023-01-02T08:45:08.986Z,10.70
2023-01-02T08:46:09.220Z,10.68
2023-01-02T08:47:09.014Z,10.68
2023-01-02T08:48:19.721Z,10.66
2023-01-02T08:49:08.943Z,10.70
2023-01-02T08:50:08.943Z,10.70
2023-01-02T08:51:08.965Z,10.73
2023-01-02T08:52:08.927Z,10.73
2023-01-02T08:53:12.714Z,10.73
2023-01-02T08:54:08.895Z,10.69
2023-01-02T08:55:08.901Z,10.72
2023-01-02T08:56:08.899Z,10.69
2023-01-02T08:57:08.956Z,10.70
2023-01-02T08:58:08.858Z,10.73
2023-01-02T08:59:08.927Z,10.73
2023-01-02T09:00:08.832Z,10.73
2023-01-02T09:01:08.851Z,10.73
2023-01-02T09:02:08.986Z,10.75
2023-01-02T09:03:08.861Z,10.80
2023-01-02T09:04:12.462Z,10.81
2023-01-02T09:05:08.905Z,10.81
2023-01-02T09:06:08.792Z,10.81
2023-01-02T09:07:08.766Z,10.80
2023-01-02T09:08:08.749Z,10.78
2023-01-02T09:09:11.897Z,10.81
2023-01-02T09:10:08.726Z,10.81
2023-01-02T09:11:08.725Z,10.81
2023-01-02T09:12:08.712Z,10.83
2023-01-02T09:13:08.753Z,10.84
2023-01-02T09:14:08.678Z,10.86
2023-01-02T09:15:08.661Z,10.87
2023-01-02T09:16:08.729Z,10.86
2023-01-02T09:17:08.644Z,10.84
2023-01-02T09:18:08.660Z,10.81
2023-01-02T09:19:08.627Z,10.83
2023-01-02T09:20:08.629Z,10.83
2023-01-02T09:21:08.617Z,10.81
2023-01-02T09:22:08.592Z,10.78
2023-01-02T09:23:08.581Z,10.78
2023-01-02T09:24:08.575Z,10.76
2023-01-02T09:25:08.575Z,10.76
2023-01-02T09:26:08.578Z,10.78
2023-01-02T09:27:08.556Z,10.76
2023-01-02T09:28:08.529Z,10.78
2023-01-02T09:29:08.512Z,10.75
2023-01-02T09:30:08.516Z,10.76
2023-01-02T09:31:12.065Z,10.76
2023-01-02T09:32:08.484Z,10.76
2023-01-02T09:33:08.480Z,10.80
2023-01-02T09:34:08.467Z,10.76
2023-01-02T09:35:08.452Z,10.75
2023-01-02T09:36:08.464Z,10.76
2023-01-02T09:37:10.255Z,10.73
2023-01-02T09:38:08.436Z,10.75
2023-01-02T09:39:08.424Z,10.75
2023-01-02T09:40:08.412Z,10.73
2023-01-02T09:41:08.409Z,10.73
2023-01-02T09:42:08.407Z,10.75
2023-01-02T09:43:08.367Z,10.73
2023-01-02T09:44:08.396Z,10.72
2023-01-02T09:45:09.161Z,10.68
2023-01-02T09:46:08.434Z,10.66
2023-01-02T09:47:08.329Z,10.63
2023-01-02T09:48:08.339Z,10.58
2023-01-02T09:49:08.318Z,10.57
2023-01-02T09:50:08.338Z,10.54
2023-01-02T09:51:08.318Z,10.47
2023-01-02T09:52:08.294Z,10.46
2023-01-02T09:53:08.275Z,10.44
2023-01-02T09:54:08.274Z,10.43
2023-01-02T09:55:08.255Z,10.39
2023-01-02T09:56:08.259Z,10.39
2023-01-02T09:57:08.224Z,10.36
2023-01-02T09:58:08.219Z,10.35
2023-01-02T09:59:08.205Z,10.35
2023-01-02T10:00:08.191Z,10.32
2023-01-02T10:01:08.195Z,10.32
2023-01-02T10:02:08.186Z,10.32
2023-01-02T10:03:08.803Z,10.31
2023-01-02T10:04:08.223Z,10.31
2023-01-02T10:05:08.137Z,10.28
2023-01-02T10:06:08.219Z,10.28
2023-01-02T10:07:08.113Z,10.26
2023-01-02T10:08:08.102Z,10.26
2023-01-02T10:09:08.084Z,10.26
2023-01-02T10:10:08.109Z,10.26
2023-01-02T10:11:08.207Z,10.24
2023-01-02T10:12:08.080Z,10.24
2023-01-02T10:13:08.051Z,10.20
2023-01-02T10:14:18.703Z,10.18
2023-01-02T10:15:08.027Z,10.20
2023-01-02T10:16:08.108Z,10.20
2023-01-02T10:17:08.032Z,10.18
2023-01-02T10:18:08.000Z,10.17
2023-01-02T10:19:07.989Z,10.16
2023-01-02T10:20:07.978Z,10.17
2023-01-02T10:21:07.994Z,10.17
2023-01-02T10:22:07.974Z,10.17
2023-01-02T10:23:07.954Z,10.18
2023-01-02T10:24:07.945Z,10.16
2023-01-02T10:25:07.925Z,10.16
2023-01-02T10:26:07.926Z,10.14
2023-01-02T10:27:07.900Z,10.16
2023-01-02T10:28:07.912Z,10.14
2023-01-02T10:29:07.875Z,10.14
2023-01-02T10:30:07.881Z,10.13
2023-01-02T10:31:08.067Z,10.13
2023-01-02T10:32:07.902Z,10.11
2023-01-02T10:33:07.826Z,10.10
2023-01-02T10:34:07.822Z,10.11
2023-01-02T10:35:07.822Z,10.09
2023-01-02T10:36:07.824Z,10.10
2023-01-02T10:37:08.262Z,10.09
2023-01-02T10:38:07.797Z,10.09
2023-01-02T10:39:07.785Z,10.07
2023-01-02T10:40:07.762Z,10.07
2023-01-02T10:41:07.755Z,10.07
2023-01-02T10:42:07.729Z,10.07
2023-01-02T10:43:07.721Z,10.04
2023-01-02T10:44:07.721Z,10.02
2023-01-02T10:45:07.699Z,10.02
2023-01-02T10:46:07.781Z,10.01
2023-01-02T10:47:07.676Z,10.02
2023-01-02T10:48:07.668Z,10.01
2023-01-02T10:49:07.672Z,9.99
2023-01-02T10:50:07.688Z,9.99
2023-01-02T10:51:07.652Z,9.98
2023-01-02T10:52:07.631Z,9.98
2023-01-02T10:53:07.618Z,9.98
2023-01-02T10:54:07.640Z,9.96
2023-01-02T10:55:07.606Z,9.96
2023-01-02T10:56:07.642Z,9.96
2023-01-02T10:57:07.569Z,9.98
2023-01-02T10:58:07.574Z,9.96
2023-01-02T10:59:07.564Z,9.95
2023-01-02T11:00:07.552Z,9.92
2023-01-02T11:01:07.591Z,9.93
2023-01-02T11:02:07.647Z,9.92
2023-01-02T11:03:07.591Z,9.92
2023-01-02T11:04:07.515Z,9.91
2023-01-02T11:05:07.511Z,9.92
2023-01-02T11:06:25.992Z,9.89
2023-01-02T11:07:07.492Z,9.91
2023-01-02T11:08:07.500Z,9.91
2023-01-02T11:09:07.442Z,9.91
2023-01-02T11:10:07.450Z,9.91
2023-01-02T11:11:07.974Z,9.91
2023-01-02T11:12:07.435Z,9.89
2023-01-02T11:13:07.389Z,9.89
2023-01-02T11:14:07.404Z,9.88
2023-01-02T11:15:07.373Z,9.88
2023-01-02T11:16:07.431Z,9.88
2023-01-02T11:17:07.372Z,9.88
2023-01-02T11:18:07.348Z,9.86
2023-01-02T11:19:07.331Z,9.85
2023-01-02T11:20:07.326Z,9.86
2023-01-02T11:21:07.339Z,9.86
2023-01-02T11:22:07.323Z,9.86
2023-01-02T11:23:07.293Z,9.83
2023-01-02T11:24:07.298Z,9.85
2023-01-02T11:25:07.277Z,9.85
2023-01-02T11:26:07.269Z,9.83
2023-01-02T11:27:07.352Z,9.85
2023-01-02T11:28:07.245Z,9.83
2023-01-02T11:29:07.225Z,9.83
2023-01-02T11:30:07.239Z,9.81
2023-01-02T11:31:07.275Z,9.81
2023-01-02T11:32:07.247Z,9.81
2023-01-02T11:33:07.197Z,9.81
2023-01-02T11:34:07.177Z,9.80
2023-01-02T11:35:07.155Z,9.78
2023-01-02T11:36:07.155Z,9.77
2023-01-02T11:37:07.169Z,9.78
2023-01-02T11:38:07.158Z,9.77
2023-01-02T11:39:07.112Z,9.77
2023-01-02T11:40:07.119Z,9.77
2023-01-02T11:41:07.099Z,9.75
2023-01-02T11:42:07.139Z,9.74
2023-01-02T11:43:07.078Z,9.73
2023-01-02T11:44:07.063Z,9.70
2023-01-02T11:45:07.064Z,9.70
2023-01-02T11:46:07.100Z,9.68
2023-01-02T11:47:07.059Z,9.70
2023-01-02T11:48:07.025Z,9.67
2023-01-02T11:49:07.006Z,9.67
2023-01-02T11:50:07.002Z,9.67
2023-01-02T11:51:06.980Z,9.65
2023-01-02T11:52:06.997Z,9.63
2023-01-02T11:53:06.968Z,9.62
2023-01-02T11:54:06.980Z,9.59
2023-01-02T11:55:06.940Z,9.59
2023-01-02T11:56:06.928Z,9.58
2023-01-02T11:57:07.664Z,9.58
2023-01-02T11:58:06.933Z,9.55
2023-01-02T11:59:06.911Z,9.52
2023-01-02T12:00:07.125Z,9.49
2023-01-02T12:01:06.873Z,9.50
2023-01-02T12:02:07.017Z,9.49
2023-01-02T12:03:07.028Z,9.48
2023-01-02T12:04:06.931Z,9.48
2023-01-02T12:05:06.837Z,9.45
2023-01-02T12:06:06.832Z,9.45
2023-01-02T12:07:06.838Z,9.44
2023-01-02T12:08:06.808Z,9.42
2023-01-02T12:09:06.815Z,9.41
2023-01-02T12:10:06.803Z,9.40
2023-01-02T12:11:06.788Z,9.40
2023-01-02T12:12:06.774Z,9.40
2023-01-02T12:13:06.747Z,9.38
2023-01-02T12:14:06.751Z,9.40
2023-01-02T12:15:06.726Z,9.38
2023-01-02T12:16:06.706Z,9.37
2023-01-02T12:17:06.725Z,9.35
2023-01-02T12:18:06.687Z,9.34
2023-01-02T12:19:06.741Z,9.34
2023-01-02T12:20:06.683Z,9.34
2023-01-02T12:21:06.665Z,9.31
2023-01-02T12:22:06.683Z,9.34
2023-01-02T12:23:06.649Z,9.35
2023-01-02T12:24:06.624Z,9.34
2023-01-02T12:25:06.616Z,9.34
2023-01-02T12:26:09.470Z,9.34
2023-01-02T12:27:06.624Z,9.35
2023-01-02T12:28:06.577Z,9.37
2023-01-02T12:29:06.596Z,9.35
2023-01-02T12:30:06.559Z,9.35
2023-01-02T12:31:06.555Z,9.32
2023-01-02T12:32:06.984Z,9.31
2023-01-02T12:33:06.529Z,9.32
2023-01-02T12:34:06.513Z,9.31
2023-01-02T12:35:06.510Z,9.31
2023-01-02T12:36:06.506Z,9.30
2023-01-02T12:37:06.524Z,9.30
2023-01-02T12:38:06.471Z,9.26
2023-01-02T12:39:06.457Z,9.22
2023-01-02T12:40:06.439Z,9.22
2023-01-02T12:41:06.448Z,9.20
2023-01-02T12:42:06.445Z,9.20
2023-01-02T12:43:06.420Z,9.20
2023-01-02T12:44:06.415Z,9.19
2023-01-02T12:45:06.388Z,9.19
2023-01-02T12:46:06.397Z,9.17
2023-01-02T12:47:06.403Z,9.16
2023-01-02T12:48:06.370Z,9.15
2023-01-02T12:49:06.348Z,9.15
2023-01-02T12:50:06.331Z,9.13
2023-01-02T12:51:06.329Z,9.13
2023-01-02T12:52:06.323Z,9.12
2023-01-02T12:53:06.301Z,9.10
2023-01-02T12:54:20.516Z,9.12
2023-01-02T12:55:06.283Z,9.12
2023-01-02T12:56:06.281Z,9.12
2023-01-02T12:57:06.302Z,9.12